createdAt,value
2019-01-11T00:01:52.891Z,76.07
2019-01-11T00:04:22.447Z,73.40
2019-01-11T00:06:51.907Z,105.33
2019-01-11T00:09:21.910Z,114.77
2019-01-11T00:11:51.379Z,125.23
2019-01-11T00:14:20.879Z,89.40
2019-01-11T00:16:50.355Z,87.03
2019-01-11T00:19:19.610Z,80.53
2019-01-11T00:21:49.738Z,137.73
2019-01-11T00:24:19.042Z,123.67
2019-01-11T00:26:48.350Z,226.70
2019-01-11T00:29:17.646Z,171.03
2019-01-11T00:31:46.898Z,82.83
2019-01-11T00:34:16.270Z,93.27
2019-01-11T00:36:45.626Z,73.27
2019-01-11T00:39:14.931Z,71.40
2019-01-11T00:41:44.182Z,64.70
2019-01-11T00:44:13.490Z,79.20
2019-01-11T00:46:42.842Z,75.40
2019-01-11T00:49:13.649Z,79.30
2019-01-11T00:51:43.210Z,90.67
2019-01-11T00:54:12.482Z,80.63
2019-01-11T00:56:41.789Z,78.93
2019-01-11T00:59:11.122Z,79.60
2019-01-11T01:01:40.406Z,77.23
2019-01-11T01:04:09.757Z,100.03
2019-01-11T01:06:39.018Z,72.90
2019-01-11T01:09:09.610Z,88.57
2019-01-11T01:11:39.025Z,88.27
2019-01-11T01:14:08.326Z,96.43
2019-01-11T01:16:37.613Z,94.97
2019-01-11T01:19:06.874Z,93.67
2019-01-11T01:21:36.278Z,113.77
2019-01-11T01:24:05.526Z,88.40
2019-01-11T01:26:34.906Z,84.10
2019-01-11T01:29:04.301Z,87.20
2019-01-11T01:31:33.693Z,81.97
2019-01-11T01:34:03.057Z,78.67
2019-01-11T01:36:32.365Z,83.37
2019-01-11T01:39:01.621Z,91.57
2019-01-11T01:41:30.998Z,74.40
2019-01-11T01:44:00.234Z,72.10
2019-01-11T01:46:29.565Z,75.97
2019-01-11T01:48:58.861Z,71.63
2019-01-11T01:51:28.197Z,67.83
2019-01-11T01:53:57.779Z,69.97
2019-01-11T01:56:27.149Z,80.27
2019-01-11T01:58:56.436Z,76.53
2019-01-11T02:01:25.732Z,73.17
2019-01-11T02:03:54.996Z,84.60
2019-01-11T02:06:24.324Z,74.47
2019-01-11T02:08:53.600Z,80.10
2019-01-11T02:11:22.868Z,71.40
2019-01-11T02:13:52.164Z,71.87
2019-01-11T02:16:21.416Z,69.70
2019-01-11T02:18:50.712Z,78.43
2019-01-11T02:21:20.025Z,77.87
2019-01-11T02:23:49.348Z,74.87
2019-01-11T02:26:18.680Z,81.07
2019-01-11T02:28:48.752Z,94.03
2019-01-11T02:31:18.052Z,73.40
2019-01-11T02:33:47.395Z,86.77
2019-01-11T02:36:16.741Z,77.77
2019-01-11T02:38:46.021Z,79.67
2019-01-11T02:41:15.401Z,85.50
2019-01-11T02:43:44.732Z,73.17
2019-01-11T02:46:14.088Z,81.10
2019-01-11T02:48:43.407Z,83.17
2019-01-11T02:51:12.782Z,82.87
2019-01-11T02:53:42.124Z,68.37
2019-01-11T02:56:11.458Z,86.03
2019-01-11T02:58:40.755Z,77.80
2019-01-11T03:01:10.175Z,74.20
2019-01-11T03:03:39.767Z,77.53
2019-01-11T03:06:09.069Z,77.10
2019-01-11T03:08:38.316Z,83.27
2019-01-11T03:11:07.648Z,72.83
2019-01-11T03:13:37.015Z,88.73
2019-01-11T03:16:06.380Z,79.60
2019-01-11T03:18:35.683Z,76.93
2019-01-11T03:21:05.223Z,76.90
2019-01-11T03:23:34.625Z,71.57
2019-01-11T03:26:04.043Z,72.40
2019-01-11T03:28:33.363Z,74.70
2019-01-11T03:31:08.606Z,68.67
2019-01-11T03:33:38.028Z,68.47
2019-01-11T03:36:07.279Z,71.03
2019-01-11T03:38:36.623Z,64.70
2019-01-11T03:41:05.862Z,69.07
2019-01-11T03:43:35.078Z,70.27
2019-01-11T03:46:04.438Z,63.17
2019-01-11T03:48:33.684Z,61.50
2019-01-11T03:51:03.076Z,64.70
2019-01-11T03:53:32.338Z,67.13
2019-01-11T03:56:02.612Z,67.50
2019-01-11T03:58:31.938Z,61.90
2019-01-11T04:01:01.214Z,64.60
2019-01-11T04:03:30.515Z,65.30
2019-01-11T04:05:59.846Z,65.80
2019-01-11T04:08:29.103Z,73.27
2019-01-11T04:10:58.383Z,68.50
2019-01-11T04:13:30.609Z,64.67
2019-01-11T04:15:58.578Z,64.10
2019-01-11T04:18:35.817Z,65.80
2019-01-11T04:21:05.127Z,75.67
2019-01-11T04:23:34.462Z,57.60
2019-01-11T04:26:03.790Z,61.73
2019-01-11T04:28:33.087Z,53.33
2019-01-11T04:31:02.398Z,65.83
2019-01-11T04:33:31.742Z,59.70
2019-01-11T04:36:01.011Z,63.13
2019-01-11T04:38:30.303Z,54.30
2019-01-11T04:40:59.631Z,57.67
2019-01-11T04:43:29.007Z,55.57
2019-01-11T04:45:58.270Z,54.50
2019-01-11T04:48:27.522Z,46.77
2019-01-11T04:50:56.899Z,47.40
2019-01-11T04:53:26.174Z,41.80
2019-01-11T04:55:55.426Z,41.97
2019-01-11T04:58:24.710Z,41.77
2019-01-11T05:00:54.046Z,39.57
2019-01-11T05:03:23.369Z,37.77
2019-01-11T05:05:52.665Z,50.00
2019-01-11T05:08:22.006Z,45.30
2019-01-11T05:10:51.387Z,45.83
2019-01-11T05:13:36.969Z,42.27
2019-01-11T05:16:06.441Z,38.63
2019-01-11T05:18:35.782Z,41.57
2019-01-11T05:21:05.149Z,50.07
2019-01-11T05:23:34.537Z,60.77
2019-01-11T05:26:03.862Z,75.47
2019-01-11T05:28:33.222Z,43.30
2019-01-11T05:31:02.561Z,34.80
2019-01-11T05:33:31.905Z,30.93
2019-01-11T05:36:01.169Z,38.10
2019-01-11T05:38:30.449Z,28.87
2019-01-11T05:40:59.741Z,46.43
2019-01-11T05:43:29.028Z,477.20
2019-01-11T05:45:58.417Z,589.80
2019-01-11T05:48:27.817Z,538.43
2019-01-11T05:50:57.074Z,351.30
2019-01-11T05:53:28.140Z,127.97
2019-01-11T05:55:58.785Z,115.37
2019-01-11T05:58:31.421Z,101.03
2019-01-11T06:01:00.809Z,115.07
2019-01-11T06:03:30.396Z,65.07
2019-01-11T06:05:59.780Z,77.27
2019-01-11T06:08:30.133Z,72.30
2019-01-11T06:10:59.432Z,81.73
2019-01-11T06:13:28.713Z,108.33
2019-01-11T06:15:58.017Z,55.27
2019-01-11T06:18:27.268Z,81.07
2019-01-11T06:20:56.508Z,50.07
2019-01-11T06:23:26.670Z,57.10
2019-01-11T06:25:55.908Z,56.97
2019-01-11T06:28:25.288Z,64.13
2019-01-11T06:30:54.607Z,159.87
2019-01-11T06:33:23.996Z,139.20
2019-01-11T06:35:53.256Z,112.70
2019-01-11T06:38:22.617Z,125.67
2019-01-11T06:40:51.971Z,122.53
2019-01-11T06:43:21.244Z,111.97
2019-01-11T06:45:50.504Z,90.57
2019-01-11T06:48:37.592Z,101.57
2019-01-11T06:51:07.003Z,112.40
2019-01-11T06:53:36.559Z,78.77
2019-01-11T06:56:05.966Z,79.83
2019-01-11T06:58:35.247Z,58.80
2019-01-11T07:01:04.768Z,61.50
2019-01-11T07:03:34.048Z,47.97
2019-01-11T07:06:03.431Z,46.00
2019-01-11T07:08:32.719Z,42.63
2019-01-11T07:11:02.026Z,34.00
2019-01-11T07:13:31.279Z,40.10
2019-01-11T07:16:00.639Z,35.97
2019-01-11T07:18:29.930Z,33.67
2019-01-11T07:20:59.295Z,32.77
2019-01-11T07:23:28.583Z,29.27
2019-01-11T07:25:57.935Z,30.10
2019-01-11T07:28:27.424Z,26.43
2019-01-11T07:31:11.861Z,30.20
2019-01-11T07:33:41.243Z,27.57
2019-01-11T07:36:28.451Z,26.20
2019-01-11T07:38:57.921Z,38.70
2019-01-11T07:41:27.171Z,50.30
2019-01-11T07:43:56.496Z,42.53
2019-01-11T07:46:26.410Z,56.23
2019-01-11T07:48:55.666Z,39.87
2019-01-11T07:51:24.983Z,78.73
2019-01-11T07:53:54.279Z,73.80
2019-01-11T07:56:23.606Z,49.73
2019-01-11T07:58:52.875Z,45.67
2019-01-11T08:01:22.295Z,59.10
2019-01-11T08:03:51.570Z,42.70
2019-01-11T08:06:20.922Z,53.13
2019-01-11T08:08:50.370Z,70.17
2019-01-11T08:11:19.674Z,73.70
2019-01-11T08:13:48.942Z,32.23
2019-01-11T08:16:18.294Z,35.47
2019-01-11T08:18:47.518Z,40.07
2019-01-11T08:21:16.783Z,30.30
2019-01-11T08:23:46.087Z,37.43
2019-01-11T08:26:15.358Z,36.77
2019-01-11T08:28:44.610Z,40.43
2019-01-11T08:31:13.842Z,26.07
2019-01-11T08:33:43.190Z,31.70
2019-01-11T08:36:12.478Z,21.37
2019-01-11T08:38:41.835Z,21.03
2019-01-11T08:41:11.122Z,24.50
2019-01-11T08:43:40.426Z,19.03
2019-01-11T08:46:09.690Z,27.23
2019-01-11T08:48:39.012Z,25.80
2019-01-11T08:51:08.425Z,26.80
2019-01-11T08:53:37.706Z,31.77
2019-01-11T08:56:08.515Z,31.57
2019-01-11T08:58:39.601Z,32.30
2019-01-11T09:01:08.937Z,34.37
2019-01-11T09:03:38.237Z,32.40
2019-01-11T09:06:07.506Z,43.87
2019-01-11T09:08:36.775Z,40.50
2019-01-11T09:11:06.657Z,24.87
2019-01-11T09:13:35.921Z,27.07
2019-01-11T09:16:05.981Z,34.63
2019-01-11T09:18:49.621Z,35.53
2019-01-11T09:21:18.996Z,35.40
2019-01-11T09:23:48.695Z,32.77
2019-01-11T09:26:17.979Z,30.00
2019-01-11T09:28:47.345Z,40.80
2019-01-11T09:31:16.781Z,28.67
2019-01-11T09:33:46.065Z,30.00
2019-01-11T09:36:15.910Z,22.07
2019-01-11T09:38:45.228Z,30.53
2019-01-11T09:41:14.719Z,27.17
2019-01-11T09:43:44.057Z,23.03
2019-01-11T09:46:13.357Z,28.50
2019-01-11T09:48:42.701Z,31.07
2019-01-11T09:51:15.668Z,25.83
2019-01-11T09:53:42.937Z,27.20
2019-01-11T09:56:12.349Z,25.20
2019-01-11T09:58:41.684Z,19.80
2019-01-11T10:01:10.973Z,20.87
2019-01-11T10:03:40.260Z,236.10
2019-01-11T10:06:09.560Z,36.73
2019-01-11T10:08:38.848Z,81.27
2019-01-11T10:11:08.116Z,26.33
2019-01-11T10:13:37.429Z,266.70
2019-01-11T10:16:06.703Z,93.23
2019-01-11T10:18:36.008Z,22.83
2019-01-11T10:21:05.356Z,100.33
2019-01-11T10:23:34.660Z,32.30
2019-01-11T10:26:04.029Z,255.60
2019-01-11T10:28:33.432Z,34.57
2019-01-11T10:31:02.744Z,36.83
2019-01-11T10:33:36.214Z,23.03
2019-01-11T10:36:03.012Z,32.47
2019-01-11T10:38:32.268Z,30.27
2019-01-11T10:41:01.528Z,32.80
2019-01-11T10:43:30.784Z,47.93
2019-01-11T10:46:00.564Z,58.63
2019-01-11T10:48:29.883Z,33.60
2019-01-11T10:50:59.275Z,26.57
2019-01-11T10:53:28.640Z,83.67
2019-01-11T10:55:57.980Z,34.30
2019-01-11T10:58:27.271Z,27.93
2019-01-11T11:00:56.567Z,22.03
2019-01-11T11:03:25.855Z,26.63
2019-01-11T11:05:55.136Z,27.63
2019-01-11T11:08:24.453Z,26.43
2019-01-11T11:10:53.743Z,41.23
2019-01-11T11:13:22.999Z,32.03
2019-01-11T11:15:52.327Z,30.63
2019-01-11T11:18:21.587Z,38.27
2019-01-11T11:20:50.959Z,44.47
2019-01-11T11:23:20.223Z,27.57
2019-01-11T11:25:49.631Z,27.87
2019-01-11T11:28:18.895Z,40.20
2019-01-11T11:30:50.999Z,49.77
2019-01-11T11:33:19.199Z,32.40
2019-01-11T11:35:48.463Z,34.17
2019-01-11T11:38:17.735Z,34.30
2019-01-11T11:40:47.095Z,34.67
2019-01-11T11:43:16.379Z,34.83
2019-01-11T11:45:45.671Z,29.67
2019-01-11T11:48:14.950Z,35.47
2019-01-11T11:50:44.250Z,41.83
2019-01-11T11:53:13.459Z,32.77
2019-01-11T11:55:42.751Z,46.60
2019-01-11T11:58:12.074Z,51.43
2019-01-11T12:00:41.389Z,38.73
2019-01-11T12:03:10.755Z,35.30
2019-01-11T12:05:40.066Z,40.83
2019-01-11T12:08:09.306Z,39.50
2019-01-11T12:10:38.674Z,36.53
2019-01-11T12:13:08.038Z,33.57
2019-01-11T12:15:38.056Z,32.73
2019-01-11T12:18:07.353Z,37.33
2019-01-11T12:20:36.819Z,47.13
2019-01-11T12:23:06.110Z,36.20
2019-01-11T12:25:35.366Z,42.93
2019-01-11T12:28:04.655Z,33.33
2019-01-11T12:30:33.974Z,25.13
2019-01-11T12:33:03.370Z,30.33
2019-01-11T12:35:32.629Z,28.40
2019-01-11T12:38:01.939Z,27.10
2019-01-11T12:40:31.185Z,36.83
2019-01-11T12:43:00.464Z,32.67
2019-01-11T12:45:29.778Z,34.87
2019-01-11T12:47:59.062Z,33.20
2019-01-11T12:50:28.773Z,230.93
2019-01-11T12:52:58.245Z,38.90
2019-01-11T12:55:27.609Z,22.43
2019-01-11T12:57:56.934Z,48.80
2019-01-11T13:00:26.305Z,27.47
2019-01-11T13:02:55.750Z,28.83
2019-01-11T13:05:25.252Z,35.67
2019-01-11T13:07:54.477Z,29.63
2019-01-11T13:10:23.825Z,34.77
2019-01-11T13:12:53.303Z,35.33
2019-01-11T13:15:24.629Z,27.43
2019-01-11T13:17:53.845Z,27.80
2019-01-11T13:20:23.701Z,36.47
2019-01-11T13:22:53.397Z,27.40
2019-01-11T13:25:22.650Z,25.80
2019-01-11T13:27:51.989Z,61.63
2019-01-11T13:30:21.257Z,29.53
2019-01-11T13:32:50.619Z,37.80
2019-01-11T13:35:19.952Z,34.40
2019-01-11T13:37:49.237Z,35.67
2019-01-11T13:40:25.397Z,33.73
2019-01-11T13:42:55.093Z,36.63
2019-01-11T13:45:24.416Z,39.03
2019-01-11T13:47:53.793Z,38.30
2019-01-11T13:50:48.104Z,25.33
2019-01-11T13:53:19.254Z,32.00
2019-01-11T13:55:48.612Z,33.17
2019-01-11T13:58:17.949Z,28.57
2019-01-11T14:00:47.272Z,35.60
2019-01-11T14:03:16.647Z,29.53
2019-01-11T14:05:45.974Z,43.50
2019-01-11T14:08:15.233Z,32.27
2019-01-11T14:10:44.536Z,31.53
2019-01-11T14:13:13.888Z,35.13
2019-01-11T14:15:43.142Z,66.63
2019-01-11T14:18:12.508Z,61.47
2019-01-11T14:20:41.754Z,48.90
2019-01-11T14:23:11.004Z,30.27
2019-01-11T14:25:40.364Z,26.63
2019-01-11T14:28:09.684Z,33.33
2019-01-11T14:30:39.162Z,31.87
2019-01-11T14:33:08.412Z,30.17
2019-01-11T14:35:37.788Z,30.73
2019-01-11T14:38:07.124Z,31.40
2019-01-11T14:40:36.412Z,34.20
2019-01-11T14:43:05.704Z,31.73
2019-01-11T14:45:35.012Z,31.07
2019-01-11T14:48:04.348Z,29.23
2019-01-11T14:50:33.692Z,27.87
2019-01-11T14:53:03.159Z,37.70
2019-01-11T14:55:32.565Z,38.13
2019-01-11T14:58:01.819Z,32.00
2019-01-11T15:00:31.291Z,34.67
2019-01-11T15:03:00.626Z,28.93
2019-01-11T15:05:29.960Z,28.60
2019-01-11T15:07:59.207Z,26.73
2019-01-11T15:10:28.575Z,44.40
2019-01-11T15:12:57.847Z,37.73
2019-01-11T15:15:27.239Z,29.47
2019-01-11T15:17:56.511Z,29.27
2019-01-11T15:20:25.812Z,33.50
2019-01-11T15:22:55.120Z,34.23
2019-01-11T15:25:24.417Z,29.90
2019-01-11T15:27:53.741Z,28.07
2019-01-11T15:30:23.039Z,32.53
2019-01-11T15:32:52.344Z,28.50
2019-01-11T15:35:21.749Z,33.43
2019-01-11T15:37:51.139Z,30.27
2019-01-11T15:40:28.441Z,30.63
2019-01-11T15:42:57.634Z,43.43
2019-01-11T15:45:26.915Z,28.73
2019-01-11T15:47:56.364Z,27.20
2019-01-11T15:50:54.823Z,28.87
2019-01-11T15:53:24.059Z,49.27
2019-01-11T15:55:59.111Z,33.20
2019-01-11T15:58:28.420Z,105.10
2019-01-11T16:00:57.708Z,100.63
2019-01-11T16:03:26.971Z,108.50
2019-01-11T16:06:24.680Z,67.50
2019-01-11T16:09:56.751Z,55.10
2019-01-11T16:12:53.188Z,60.20
2019-01-11T16:15:33.602Z,49.20
2019-01-11T16:18:06.465Z,40.27
2019-01-11T16:20:35.954Z,30.27
2019-01-11T16:23:05.240Z,108.13
2019-01-11T16:25:34.834Z,37.50
2019-01-11T16:28:04.278Z,43.57
2019-01-11T16:30:33.550Z,71.23
2019-01-11T16:33:02.935Z,33.27
2019-01-11T16:35:32.213Z,30.03
2019-01-11T16:38:01.476Z,41.93
2019-01-11T16:40:30.751Z,35.03
2019-01-11T16:43:00.118Z,35.57
2019-01-11T16:45:29.397Z,33.07
2019-01-11T16:47:58.693Z,29.97
2019-01-11T16:50:27.987Z,33.33
2019-01-11T16:52:57.286Z,33.53
2019-01-11T16:55:26.573Z,32.63
2019-01-11T16:57:55.861Z,34.70
2019-01-11T17:00:25.178Z,53.70
2019-01-11T17:02:54.448Z,59.93
2019-01-11T17:05:23.825Z,44.53
2019-01-11T17:07:53.219Z,37.93
2019-01-11T17:10:22.530Z,37.43
2019-01-11T17:12:51.769Z,31.07
2019-01-11T17:15:21.065Z,34.20
2019-01-11T17:17:50.329Z,33.03
2019-01-11T17:20:19.689Z,29.23
2019-01-11T17:22:53.053Z,27.30
2019-01-11T17:25:19.858Z,27.10
2019-01-11T17:27:49.154Z,62.80
2019-01-11T17:30:18.961Z,35.07
2019-01-11T17:32:48.262Z,34.43
2019-01-11T17:35:17.584Z,24.53
2019-01-11T17:37:46.920Z,32.53
2019-01-11T17:40:16.782Z,49.10
2019-01-11T17:42:46.084Z,27.67
2019-01-11T17:45:15.644Z,26.70
2019-01-11T17:47:44.968Z,21.20
2019-01-11T17:50:18.992Z,28.60
2019-01-11T17:52:48.248Z,19.17
2019-01-11T17:55:17.536Z,28.83
2019-01-11T17:57:46.822Z,24.10
2019-01-11T18:00:17.837Z,25.03
2019-01-11T18:02:47.128Z,23.57
2019-01-11T18:05:17.076Z,29.33
2019-01-11T18:07:46.408Z,30.87
2019-01-11T18:10:15.696Z,28.43
2019-01-11T18:12:45.037Z,67.67
2019-01-11T18:15:19.386Z,26.07
2019-01-11T18:17:48.684Z,23.00
2019-01-11T18:20:21.410Z,24.67
2019-01-11T18:22:50.776Z,22.97
2019-01-11T18:25:20.012Z,33.30
2019-01-11T18:27:49.282Z,25.50
2019-01-11T18:30:18.597Z,28.13
2019-01-11T18:32:47.841Z,28.63
2019-01-11T18:35:17.120Z,19.83
2019-01-11T18:37:46.380Z,26.53
2019-01-11T18:40:18.428Z,20.33
2019-01-11T18:42:47.808Z,22.97
2019-01-11T18:45:17.309Z,19.27
2019-01-11T18:47:46.603Z,23.60
2019-01-11T18:50:18.331Z,28.53
2019-01-11T18:52:48.413Z,23.67
2019-01-11T18:55:17.711Z,19.60
2019-01-11T18:57:47.207Z,24.70
2019-01-11T19:00:18.687Z,25.77
2019-01-11T19:02:48.151Z,28.03
2019-01-11T19:05:17.446Z,28.10
2019-01-11T19:07:49.029Z,25.83
2019-01-11T19:10:19.303Z,22.90
2019-01-11T19:12:48.786Z,27.60
2019-01-11T19:15:23.622Z,26.10
2019-01-11T19:17:52.928Z,28.47
2019-01-11T19:20:24.472Z,23.53
2019-01-11T19:22:53.770Z,22.37
2019-01-11T19:25:23.129Z,26.43
2019-01-11T19:27:52.602Z,28.83
2019-01-11T19:30:23.802Z,26.73
2019-01-11T19:32:53.054Z,27.63
2019-01-11T19:35:22.279Z,22.17
2019-01-11T19:37:51.570Z,29.27
2019-01-11T19:40:20.958Z,23.60
2019-01-11T19:42:50.212Z,23.30
2019-01-11T19:45:20.375Z,22.53
2019-01-11T19:47:49.677Z,19.47
2019-01-11T19:50:21.110Z,22.60
2019-01-11T19:52:50.509Z,26.07
2019-01-11T19:55:20.181Z,33.37
2019-01-11T19:57:49.478Z,27.37
2019-01-11T20:00:23.710Z,29.03
2019-01-11T20:02:53.303Z,28.63
2019-01-11T20:05:22.637Z,32.03
2019-01-11T20:07:52.402Z,33.40
2019-01-11T20:10:24.505Z,27.07
2019-01-11T20:12:53.782Z,34.83
2019-01-11T20:15:23.162Z,32.10
2019-01-11T20:17:52.587Z,34.23
2019-01-11T20:20:22.139Z,33.17
2019-01-11T20:22:51.474Z,30.67
2019-01-11T20:25:22.713Z,40.13
2019-01-11T20:27:52.269Z,38.23
2019-01-11T20:30:23.478Z,36.10
2019-01-11T20:32:52.770Z,33.20
2019-01-11T20:35:22.070Z,34.40
2019-01-11T20:37:51.437Z,28.93
2019-01-11T20:40:20.739Z,36.93
2019-01-11T20:42:50.049Z,34.27
2019-01-11T20:45:20.947Z,37.53
2019-01-11T20:47:50.193Z,35.73
2019-01-11T20:50:22.247Z,34.23
2019-01-11T20:52:51.625Z,29.33
2019-01-11T20:55:20.919Z,28.63
2019-01-11T20:57:50.389Z,35.60
2019-01-11T21:00:28.165Z,35.87
2019-01-11T21:02:57.542Z,37.57
2019-01-11T21:05:27.494Z,27.23
2019-01-11T21:07:56.893Z,31.60
2019-01-11T21:10:26.285Z,33.67
2019-01-11T21:12:55.606Z,30.23
2019-01-11T21:15:25.113Z,40.37
2019-01-11T21:17:54.373Z,38.77
2019-01-11T21:20:23.861Z,34.23
2019-01-11T21:22:53.133Z,40.27
2019-01-11T21:25:22.517Z,29.73
2019-01-11T21:27:51.765Z,27.00
2019-01-11T21:30:23.265Z,24.77
2019-01-11T21:32:52.521Z,26.03
2019-01-11T21:35:21.800Z,25.00
2019-01-11T21:37:51.113Z,26.13
2019-01-11T21:40:21.051Z,29.93
2019-01-11T21:42:50.529Z,25.87
2019-01-11T21:45:20.177Z,24.20
2019-01-11T21:47:49.684Z,25.03
2019-01-11T21:50:21.020Z,25.47
2019-01-11T21:52:50.624Z,21.10
2019-01-11T21:55:20.308Z,24.73
2019-01-11T21:57:49.596Z,23.63
2019-01-11T22:00:24.212Z,22.53
2019-01-11T22:02:53.676Z,19.63
2019-01-11T22:05:22.974Z,23.00
2019-01-11T22:07:52.276Z,22.17
2019-01-11T22:10:21.604Z,20.77
2019-01-11T22:12:50.861Z,20.77
2019-01-11T22:15:20.012Z,22.93
2019-01-11T22:17:49.395Z,17.93
2019-01-11T22:20:18.797Z,34.13
2019-01-11T22:22:48.056Z,29.93
2019-01-11T22:25:17.448Z,34.03
2019-01-11T22:27:46.880Z,28.30
2019-01-11T22:30:18.336Z,24.57
2019-01-11T22:32:47.596Z,20.87
2019-01-11T22:35:18.410Z,25.77
2019-01-11T22:37:47.895Z,23.47
2019-01-11T22:40:19.229Z,26.73
2019-01-11T22:42:50.642Z,23.83
2019-01-11T22:45:19.992Z,24.50
2019-01-11T22:47:49.267Z,23.17
2019-01-11T22:50:18.670Z,18.07
2019-01-11T22:52:48.060Z,23.43
2019-01-11T22:55:17.447Z,19.27
2019-01-11T22:57:46.757Z,22.50
2019-01-11T23:00:38.321Z,19.53
2019-01-11T23:03:11.948Z,27.57
2019-01-11T23:05:41.299Z,25.80
2019-01-11T23:08:14.143Z,35.43
2019-01-11T23:11:07.394Z,37.50
2019-01-11T23:13:36.631Z,36.80
2019-01-11T23:16:28.160Z,32.93
2019-01-11T23:18:58.420Z,34.07
2019-01-11T23:21:27.799Z,28.17
2019-01-11T23:23:57.632Z,40.93
2019-01-11T23:26:27.015Z,29.40
2019-01-11T23:28:56.303Z,18.80
2019-01-11T23:31:25.679Z,19.50
2019-01-11T23:33:54.963Z,20.17
2019-01-11T23:36:24.346Z,18.60
2019-01-11T23:38:53.719Z,25.17
2019-01-11T23:41:22.970Z,20.90
2019-01-11T23:43:52.342Z,17.77
2019-01-11T23:46:21.598Z,14.87
2019-01-11T23:48:50.895Z,14.27
2019-01-11T23:51:20.151Z,13.90
2019-01-11T23:53:50.712Z,10.80
2019-01-11T23:56:20.482Z,12.73
2019-01-11T23:58:49.774Z,15.97
